Cadiz, OH (43907)

06:11 AM EST die 22o November, anno 2017 (GMT -0500)
Steubenville Pike | | Change Station

Elev 1237 ft 40.28 °N, 80.99 °W | Updated 2 seconds ago

Aequaliter Nubila
Aequaliter Nubila
32.9 °F
Feels Like 25 °F
N
8.9
Ventus Variabilis Ventus from Inter Aquilonem et Zephyrus
Gusts 9.8 mph

Hodie
High -- | Low -- °F
--% Chance of Precip.
Yesterday
High -- | Low -- °F
Precip. -- in
Pressio 30.11 in
Visibilitas 8.0 milia passuum
Clouds Few 800 ft
Plerumque Nubila 3300 ft
Aequaliter Nubila 4100 ft
Frigus Venti 25 °F
Frigus in quo Ros apparet 22 °F
Umor 63%
Rainfall 0.00 in
Snow Depth Not available.
7:18 AM 5:02 PM
Waxing Crescent, 14% visible
METAR KHLG 221053Z AUTO 29006KT 8SM FEW008 BKN033 OVC041 01/M01 A3008 RMK AO2 SLP194 T00111006
Pressio 30.11 in
Visibilitas 8.0 milia passuum
Clouds Few 800 ft
Plerumque Nubila 3300 ft
Aequaliter Nubila 4100 ft
Frigus Venti 25 °F
Frigus in quo Ros apparet 22 °F
Umor 63%
Rainfall 0.00 in
Snow Depth Not available.
7:18 AM 5:02 PM
Waxing Crescent, 14% visible
METAR KHLG 221053Z AUTO 29006KT 8SM FEW008 BKN033 OVC041 01/M01 A3008 RMK AO2 SLP194 T00111006

Get Severe Weather Alerts

Thanks for signing up!

Be on the lookout for a verification email in your inbox.

You'll start receiving the daily forecast at 6 AM.

×

10-Day Weather Forecast

Almanac

Astronomy

Nov. 22, 2017 Rise Set
Actual Time
Civil Twilight
Nautical Twilight
Astronomical Twilight
Moon
Length Of Visible Light
Length of Day
Tomorrow will be .
, % of the Moon is Illuminated

Today's Extremes

State Highs State Lows

Community

WunderPhotos

Category 6

Welcome to Category 6. This is the collective home for Weather Underground's featured writeups by Dr. Jeff Masters (right), Bob Henson (left), Chris Burt, and other regular contributors.

Nearby

Air Quality

  Air Quality AQ Index Pollutant
Not available.

Snow Depth

Station Depth Elevation

Earthquake Activity

City Distance Mag. Time & Date
Minimum magnitude displayed is 2.5.

Coastal Water Temperatures

Locus Calor

Stations

Nearby Weather Stations

Station Location Temp Frigus Venti Frigus in quo Ros apparet Umor Ventus Precip. Elev Renovata Type
                   

Watches & Warnings

There are currently no watches in effect.